Time;durP1;ratioP1;P1;durP2;ratioP2;P2;SDS_P1;SDS_P2;PMS_P1;PMS_P2;Temp;Humidity;BMP_temperature;BMP_pressure;BME280_temperature;BME280_humidity;BME280_pressure;Samples;Min_cycle;Max_cycle;Signal;HPM_P1;HPM_P2
2023/09/18 00:01:48;;;;;;;10.25;5.68;;;;;;;18.78;100.00;101599.50;5056098;28;20025;-79
2023/09/18 00:04:13;;;;;;;7.05;5.95;;;;;;;18.65;100.00;101622.31;5055981;28;20027;-81
2023/09/18 00:06:39;;;;;;;10.45;5.88;;;;;;;18.47;100.00;101568.84;5055262;28;20025;-80
2023/09/18 00:09:06;;;;;;;11.60;6.28;;;;;;;18.78;100.00;101628.69;5073530;28;20035;-78
2023/09/18 00:11:32;;;;;;;8.57;5.88;;;;;;;18.72;100.00;101625.47;5055548;28;20032;-78
2023/09/18 00:13:57;;;;;;;10.60;5.80;;;;;;;18.44;100.00;101568.91;5072847;28;20163;-77
2023/09/18 00:16:22;;;;;;;11.02;5.82;;;;;;;18.85;100.00;101647.38;5072984;28;20185;-76
2023/09/18 00:18:48;;;;;;;10.98;6.10;;;;;;;18.65;100.00;101654.94;5055280;28;20379;-79
2023/09/18 00:21:14;;;;;;;7.95;5.72;;;;;;;18.68;100.00;101662.56;5072838;28;20031;-78
2023/09/18 00:23:39;;;;;;;7.03;5.38;;;;;;;18.22;100.00;101616.91;5071619;28;20043;-76
2023/09/18 00:26:05;;;;;;;10.77;6.00;;;;;;;18.67;100.00;101692.66;5072277;28;20040;-77
2023/09/18 00:28:30;;;;;;;11.25;5.75;;;;;;;18.35;100.00;101643.91;5072176;28;20551;-75
2023/09/18 00:30:56;;;;;;;8.75;5.22;;;;;;;18.56;100.00;101717.94;5072732;28;20043;-77
2023/09/18 00:33:21;;;;;;;10.32;5.22;;;;;;;18.59;100.00;101675.78;5071715;28;20053;-76
2023/09/18 00:35:50;;;;;;;6.95;4.80;;;;;;;18.94;100.00;101726.97;5072459;28;20049;-75
2023/09/18 00:38:16;;;;;;;7.10;5.00;;;;;;;18.56;100.00;101684.44;5072775;28;20035;-77
2023/09/18 00:40:42;;;;;;;8.45;5.50;;;;;;;18.59;100.00;101684.34;5073073;28;20028;-74
2023/09/18 00:43:08;;;;;;;8.05;5.10;;;;;;;18.68;100.00;101742.44;5054429;28;20036;-77
2023/09/18 00:45:36;;;;;;;8.95;5.50;;;;;;;18.56;100.00;101717.13;5074678;28;20100;-74
2023/09/18 00:48:01;;;;;;;9.40;5.40;;;;;;;18.78;100.00;101756.72;5093073;28;20033;-74
2023/09/18 00:50:27;;;;;;;12.80;6.28;;;;;;;18.39;100.00;101711.63;5079594;28;20040;-76
2023/09/18 00:52:52;;;;;;;8.73;5.38;;;;;;;17.88;100.00;101649.75;5072212;28;20028;-77
2023/09/18 00:55:18;;;;;;;8.93;5.53;;;;;;;18.42;100.00;101696.91;5071316;28;20036;-75
2023/09/18 00:57:44;;;;;;;8.60;6.00;;;;;;;18.61;100.00;101746.97;5070814;28;20185;-75
2023/09/18 01:00:16;;;;;;;10.57;5.72;;;;;;;18.27;100.00;101761.78;5071975;28;20032;-76
2023/09/18 01:02:42;;;;;;;10.50;5.80;;;;;;;18.11;100.00;101709.91;5072269;28;20048;-78
2023/09/18 01:05:07;;;;;;;8.63;5.53;;;;;;;18.28;100.00;101763.47;5071989;28;20032;-77
2023/09/18 01:07:33;;;;;;;8.13;5.50;;;;;;;18.38;100.00;101728.78;5070741;28;20039;-78
2023/09/18 01:09:58;;;;;;;7.38;5.05;;;;;;;18.53;100.00;101764.44;5072749;28;20024;-78
2023/09/18 01:12:39;;;;;;;8.82;5.13;;;;;;;18.44;100.00;101756.97;5071103;28;20123;-79
2023/09/18 01:15:14;;;;;;;9.25;4.97;;;;;;;18.39;100.00;101763.13;5072078;28;20070;-78
2023/09/18 01:17:40;;;;;;;6.43;5.25;;;;;;;18.51;100.00;101767.94;5072409;28;20031;-80
2023/09/18 01:20:09;;;;;;;8.15;5.25;;;;;;;18.12;100.00;101721.06;5071417;28;20495;-77
2023/09/18 01:22:35;;;;;;;9.30;6.10;;;;;;;18.50;100.00;101786.88;5070519;28;20041;-79
2023/09/18 01:25:01;;;;;;;9.70;6.22;;;;;;;18.41;100.00;101775.06;5071795;28;20033;-80
2023/09/18 01:27:26;;;;;;;10.15;6.13;;;;;;;18.44;100.00;101808.50;5072102;28;20407;-79
2023/09/18 01:29:53;;;;;;;9.10;5.82;;;;;;;18.26;100.00;101801.31;5071875;28;20462;-79
2023/09/18 01:32:19;;;;;;;8.73;5.72;;;;;;;18.33;100.00;101807.97;5071763;28;20029;-78
2023/09/18 01:34:54;;;;;;;10.23;5.95;;;;;;;18.16;100.00;101762.09;5071935;28;20913;-81
2023/09/18 01:37:22;;;;;;;8.80;5.45;;;;;;;18.12;100.00;101757.13;5072205;28;20161;-81
2023/09/18 01:39:49;;;;;;;8.70;5.30;;;;;;;18.10;100.00;101779.50;5070706;28;20017;-83
2023/09/18 01:42:15;;;;;;;7.97;5.05;;;;;;;18.21;100.00;101777.41;5071805;28;20529;-80
2023/09/18 01:44:41;;;;;;;9.10;5.45;;;;;;;18.45;100.00;101805.03;5071531;28;20028;-76
2023/09/18 01:47:11;;;;;;;7.45;4.97;;;;;;;18.34;100.00;101832.84;5071284;28;20028;-78
2023/09/18 01:49:37;;;;;;;9.15;4.90;;;;;;;18.01;100.00;101780.59;5072284;28;20035;-79
2023/09/18 01:52:05;;;;;;;6.68;4.97;;;;;;;18.72;100.00;101858.28;5074414;28;20031;-79
2023/09/18 01:54:31;;;;;;;7.03;4.75;;;;;;;18.25;100.00;101804.78;5071772;28;20036;-79
2023/09/18 01:56:57;;;;;;;5.97;4.93;;;;;;;18.47;100.00;101864.25;5086530;28;20028;-75
2023/09/18 01:59:23;;;;;;;6.30;4.65;;;;;;;18.26;100.00;101819.34;5069319;28;20036;-73
2023/09/18 02:01:49;;;;;;;5.80;4.80;;;;;;;18.31;100.00;101814.03;5071130;28;20025;-76
2023/09/18 02:04:15;;;;;;;8.23;5.00;;;;;;;18.32;100.00;101846.66;5071186;28;20028;-77
2023/09/18 02:06:40;;;;;;;6.38;5.35;;;;;;;18.27;100.00;101841.63;5053669;28;20039;-78
2023/09/18 02:09:09;;;;;;;8.00;4.57;;;;;;;18.54;100.00;101886.38;5053982;28;20487;-76
2023/09/18 02:11:38;;;;;;;6.63;4.70;;;;;;;18.70;100.00;101878.09;5053785;28;20033;-76
2023/09/18 02:14:04;;;;;;;7.38;4.18;;;;;;;18.20;100.00;101835.81;5071204;28;20035;-76
2023/09/18 02:16:29;;;;;;;7.97;4.22;;;;;;;18.35;100.00;101837.09;5053340;28;20029;-76
2023/09/18 02:18:56;;;;;;;7.80;4.03;;;;;;;18.31;100.00;101827.75;5074461;28;20504;-75
2023/09/18 02:21:22;;;;;;;7.50;4.13;;;;;;;18.46;100.00;101870.28;5075058;28;20059;-76
2023/09/18 02:23:51;;;;;;;10.70;4.22;;;;;;;18.38;100.00;101820.72;5075206;28;20066;-77
2023/09/18 02:26:20;;;;;;;8.40;4.18;;;;;;;18.50;100.00;101854.69;5075476;28;20047;-78
2023/09/18 02:28:46;;;;;;;8.13;4.25;;;;;;;18.65;100.00;101887.72;5075154;28;20025;-78
2023/09/18 02:31:11;;;;;;;6.53;3.78;;;;;;;18.26;100.00;101827.06;5066591;28;20028;-78
2023/09/18 02:33:38;;;;;;;7.70;4.43;;;;;;;18.10;100.00;101813.78;5057281;28;20064;-76
2023/09/18 02:36:03;;;;;;;7.50;4.30;;;;;;;18.16;100.00;101826.47;5048297;28;20029;-75
2023/09/18 02:38:30;;;;;;;7.25;4.07;;;;;;;18.53;100.00;101888.09;5054748;28;20055;-80
2023/09/18 02:40:56;;;;;;;6.65;4.03;;;;;;;18.28;100.00;101892.25;5054803;28;20496;-77
2023/09/18 02:43:22;;;;;;;7.32;4.45;;;;;;;18.46;100.00;101898.63;5055056;28;20075;-76
2023/09/18 02:45:48;;;;;;;7.38;4.40;;;;;;;18.47;100.00;101906.31;5053974;28;20025;-78
2023/09/18 02:48:13;;;;;;;8.20;4.60;;;;;;;18.18;100.00;101903.72;5054529;28;20112;-75
2023/09/18 02:50:39;;;;;;;8.75;4.50;;;;;;;18.28;100.00;101902.56;5052701;28;20107;-76
2023/09/18 02:53:06;;;;;;;9.57;4.72;;;;;;;17.93;100.00;101851.19;5054701;28;20415;-74
2023/09/18 02:55:32;;;;;;;8.15;5.28;;;;;;;18.06;100.00;101912.59;5053574;28;20027;-77
2023/09/18 02:57:57;;;;;;;7.70;5.35;;;;;;;17.69;100.00;101862.19;5054159;28;20029;-78
2023/09/18 03:00:23;;;;;;;8.20;5.30;;;;;;;17.91;100.00;101920.75;5054302;28;20031;-78
2023/09/18 03:02:48;;;;;;;9.32;5.65;;;;;;;17.68;100.00;101893.94;5056276;28;20032;-81
2023/09/18 03:05:14;;;;;;;8.32;5.60;;;;;;;17.70;100.00;101939.34;5074149;28;20024;-79
2023/09/18 03:07:39;;;;;;;7.38;5.88;;;;;;;17.92;100.00;101948.19;5074825;28;20054;-78
2023/09/18 03:10:05;;;;;;;7.35;5.30;;;;;;;18.17;100.00;101948.34;5074199;28;20465;-80
2023/09/18 03:12:31;;;;;;;8.70;5.78;;;;;;;18.03;100.00;101942.72;5073924;28;20032;-82
2023/09/18 03:14:57;;;;;;;10.52;5.40;;;;;;;17.39;100.00;101862.97;5074320;28;20051;-79
2023/09/18 03:17:22;;;;;;;9.13;5.95;;;;;;;17.82;100.00;101969.06;5073691;28;20036;-79
2023/09/18 03:19:49;;;;;;;9.43;5.90;;;;;;;17.20;100.00;101871.13;5073930;28;20110;-80
2023/09/18 03:22:14;;;;;;;10.32;5.80;;;;;;;17.93;100.00;101977.31;5078253;28;20067;-80
2023/09/18 03:24:39;;;;;;;9.07;5.97;;;;;;;17.71;100.00;101941.00;5069919;28;20028;-81
2023/09/18 03:27:05;;;;;;;7.40;5.68;;;;;;;17.33;100.00;101892.25;5084292;28;20055;-75
2023/09/18 03:29:30;;;;;;;9.25;5.15;;;;;;;17.63;100.00;101949.81;5072593;28;20027;-77
2023/09/18 03:31:58;;;;;;;10.13;5.25;;;;;;;18.13;100.00;102008.53;5072095;28;20033;-77
2023/09/18 03:34:26;;;;;;;11.20;6.07;;;;;;;17.53;100.00;101956.91;5078502;28;20047;-77
2023/09/18 03:36:51;;;;;;;10.25;5.75;;;;;;;17.38;100.00;101967.53;5076068;28;20469;-79
2023/09/18 03:39:17;;;;;;;10.45;5.85;;;;;;;17.49;100.00;101993.88;5093829;28;20035;-77
2023/09/18 03:41:42;;;;;;;10.10;5.72;;;;;;;17.42;100.00;101971.72;5082111;28;20036;-79
2023/09/18 03:44:09;;;;;;;9.65;6.55;;;;;;;17.69;100.00;102008.84;5059614;28;20132;-77
2023/09/18 03:46:35;;;;;;;9.50;6.22;;;;;;;17.53;100.00;102012.69;5052671;28;20086;-76
2023/09/18 03:49:02;;;;;;;9.00;6.43;;;;;;;17.49;100.00;101998.19;5034023;28;20119;-76
2023/09/18 03:51:29;;;;;;;11.82;6.72;;;;;;;17.70;100.00;102038.84;5034865;28;20040;-79
2023/09/18 03:53:55;;;;;;;13.00;6.70;;;;;;;17.59;100.00;102015.94;5051799;28;20557;-79
2023/09/18 03:56:21;;;;;;;10.05;6.05;;;;;;;17.94;100.00;102035.66;5053031;28;20060;-79
2023/09/18 03:58:49;;;;;;;10.68;6.47;;;;;;;17.64;100.00;102028.69;5052967;28;20056;-78
2023/09/18 04:01:15;;;;;;;8.85;6.30;;;;;;;17.55;100.00;101996.28;5056326;28;20032;-75
2023/09/18 04:03:41;;;;;;;11.55;7.25;;;;;;;17.11;100.00;101953.59;5067526;28;20097;-76
2023/09/18 04:06:06;;;;;;;15.80;7.88;;;;;;;17.05;100.00;101958.06;5089183;28;20032;-77
2023/09/18 04:08:32;;;;;;;10.65;7.53;;;;;;;17.48;100.00;102022.19;5078066;28;20051;-75
2023/09/18 04:10:57;;;;;;;12.02;7.80;;;;;;;17.38;100.00;102047.28;5096701;28;20035;-76
2023/09/18 04:13:23;;;;;;;9.63;4.65;;;;;;;19.83;100.00;102118.75;5092683;28;20028;-72
2023/09/18 04:15:49;;;;;;;15.38;8.07;;;;;;;17.70;100.00;102011.38;5074731;28;20454;-76
2023/09/18 04:18:14;;;;;;;14.32;8.20;;;;;;;18.17;100.00;102083.13;5092993;28;20035;-76
2023/09/18 04:20:39;;;;;;;20.92;8.98;;;;;;;18.02;100.00;102075.78;5093135;28;20035;-77
2023/09/18 04:23:21;;;;;;;13.80;7.95;;;;;;;17.96;100.00;102088.81;5075131;28;20121;-75
2023/09/18 04:25:47;;;;;;;11.98;7.00;;;;;;;17.85;100.00;102083.06;5075211;28;20633;-76
2023/09/18 04:28:13;;;;;;;13.20;6.20;;;;;;;17.98;100.00;102042.44;5092315;28;20056;-75
2023/09/18 04:30:39;;;;;;;11.77;5.18;;;;;;;18.45;100.00;102100.47;5092422;28;20104;-73
2023/09/18 04:33:04;;;;;;;8.38;5.00;;;;;;;18.21;100.00;102086.44;5091626;28;20110;-74
2023/09/18 04:35:31;;;;;;;8.48;4.85;;;;;;;17.94;100.00;102031.38;5073605;28;20114;-74
2023/09/18 04:37:58;;;;;;;7.45;4.75;;;;;;;18.33;100.00;102029.47;5090342;28;20027;-75
2023/09/18 04:40:24;;;;;;;9.15;5.10;;;;;;;18.61;100.00;102071.66;5052330;28;20036;-72
2023/09/18 04:42:50;;;;;;;15.50;5.35;;;;;;;20.70;100.00;102131.31;5071900;28;20028;-76
2023/09/18 04:45:16;;;;;;;9.35;5.20;;;;;;;19.98;100.00;102094.19;5071661;28;20025;-76
2023/09/18 04:47:41;;;;;;;8.93;5.43;;;;;;;19.23;100.00;102074.19;5050143;28;20465;-73
2023/09/18 04:50:09;;;;;;;9.02;6.30;;;;;;;19.10;100.00;102073.69;5069664;28;20066;-73
2023/09/18 04:52:34;;;;;;;12.73;6.65;;;;;;;18.88;100.00;102063.16;5052039;28;20031;-73
2023/09/18 04:54:59;;;;;;;12.50;6.25;;;;;;;18.52;100.00;102035.81;5070499;28;20032;-74
2023/09/18 04:57:25;;;;;;;11.65;6.45;;;;;;;18.60;100.00;102069.16;5069888;28;20059;-72
2023/09/18 04:59:50;;;;;;;8.38;5.95;;;;;;;18.64;100.00;102065.59;5070343;28;20055;-72
2023/09/18 05:02:16;;;;;;;11.38;5.72;;;;;;;18.65;100.00;102068.13;5068840;28;20063;-73
2023/09/18 05:04:42;;;;;;;10.48;6.40;;;;;;;18.61;100.00;102066.50;5068542;28;20029;-72
2023/09/18 05:07:07;;;;;;;11.80;6.47;;;;;;;18.32;100.00;102004.63;5069864;28;20032;-73
2023/09/18 05:09:34;;;;;;;11.60;6.95;;;;;;;18.74;100.00;102062.69;5052348;28;20032;-73
2023/09/18 05:12:00;;;;;;;12.32;7.47;;;;;;;18.93;100.00;102060.44;5052815;28;20028;-73
2023/09/18 05:14:25;;;;;;;13.10;8.07;;;;;;;18.78;100.00;102056.56;5070491;28;20494;-72
2023/09/18 05:16:50;;;;;;;11.80;6.05;;;;;;;18.90;100.00;101993.50;5052937;28;20058;-73
2023/09/18 05:19:16;;;;;;;12.15;7.22;;;;;;;19.26;100.00;102000.13;5069752;28;20029;-72
2023/09/18 05:21:42;;;;;;;11.18;6.30;;;;;;;19.75;100.00;102004.56;5070499;28;20024;-71
2023/09/18 05:24:07;;;;;;;13.95;6.88;;;;;;;20.35;100.00;102051.59;5071135;28;20868;-72
2023/09/18 05:26:33;;;;;;;13.10;7.53;;;;;;;20.14;100.00;101972.22;5053317;28;20043;-72
2023/09/18 05:28:59;;;;;;;7.35;4.40;;;;;;;20.59;100.00;102019.69;5053186;28;20032;-74
2023/09/18 05:31:24;;;;;;;7.20;4.20;;;;;;;19.70;100.00;101939.34;5052976;28;20479;-73
2023/09/18 05:33:50;;;;;;;8.82;4.05;;;;;;;21.11;100.00;102018.63;5070785;28;20048;-73
2023/09/18 05:36:15;;;;;;;9.32;4.50;;;;;;;20.94;100.00;101995.09;5052985;28;20025;-73
2023/09/18 05:38:43;;;;;;;7.97;4.38;;;;;;;21.01;100.00;101947.44;5052850;28;20033;-72
2023/09/18 05:41:09;;;;;;;5.93;4.00;;;;;;;21.24;100.00;101985.31;5070107;28;20028;-73
2023/09/18 05:43:35;;;;;;;9.13;4.00;;;;;;;21.48;100.00;101927.38;5070654;28;20040;-73
2023/09/18 05:46:01;;;;;;;7.80;4.40;;;;;;;21.82;100.00;101955.31;5070665;28;20028;-73
2023/09/18 05:48:27;;;;;;;8.50;4.75;;;;;;;21.96;100.00;101907.19;5070657;28;20044;-73
2023/09/18 05:50:54;;;;;;;7.68;4.40;;;;;;;22.25;100.00;101931.78;5070187;28;20063;-72
2023/09/18 05:53:19;;;;;;;6.72;4.40;;;;;;;22.51;100.00;101902.94;5054640;28;20087;-72
2023/09/18 05:55:45;;;;;;;8.07;5.20;;;;;;;22.72;100.00;101877.78;5074856;28;20462;-72
2023/09/18 05:58:10;;;;;;;7.80;5.30;;;;;;;22.44;100.00;101837.53;5073778;28;20089;-72
2023/09/18 06:00:36;;;;;;;11.63;5.53;;;;;;;22.56;100.00;101786.03;5057092;28;20078;-74
2023/09/18 06:03:02;;;;;;;5.57;4.68;;;;;;;22.46;100.00;101745.91;5074789;28;20040;-72
2023/09/18 06:05:30;;;;;;;8.63;5.60;;;;;;;22.53;100.00;101719.59;5074524;28;20032;-72
2023/09/18 06:07:56;;;;;;;11.23;5.68;;;;;;;23.04;100.00;101736.88;5057196;28;20033;-74
2023/09/18 06:10:21;;;;;;;9.50;5.05;;;;;;;22.99;100.00;101725.91;5057686;28;20036;-74
2023/09/18 06:12:47;;;;;;;6.65;4.60;;;;;;;22.84;100.00;101703.38;5074377;28;20107;-73
2023/09/18 06:15:13;;;;;;;7.95;5.25;;;;;;;23.23;100.00;101677.94;5056175;28;20466;-73
2023/09/18 06:17:40;;;;;;;8.32;4.95;;;;;;;23.45;100.00;101691.47;5056566;28;20490;-74
2023/09/18 06:20:16;;;;;;;8.00;4.28;;;;;;;23.63;100.00;101687.03;5074546;28;20396;-71
2023/09/18 06:22:41;;;;;;;7.35;3.97;;;;;;;23.59;100.00;101644.78;5074554;28;20036;-73
2023/09/18 06:25:09;;;;;;;5.32;3.58;;;;;;;23.90;100.00;101732.28;5056162;28;20036;-74
2023/09/18 06:27:36;;;;;;;6.03;3.75;;;;;;;23.55;100.00;101738.56;5073021;28;20025;-72
2023/09/18 06:30:03;;;;;;;7.47;4.10;;;;;;;24.00;100.00;101716.09;5073893;28;20403;-73
2023/09/18 06:32:28;;;;;;;4.65;3.65;;;;;;;23.81;100.00;101834.16;5073083;28;20411;-74
2023/09/18 06:34:53;;;;;;;4.82;3.50;;;;;;;23.80;100.00;101908.66;5055543;28;20111;-74
2023/09/18 06:37:20;;;;;;;10.98;4.47;;;;;;;23.48;100.00;102067.91;5056033;28;20028;-73
2023/09/18 06:39:45;;;;;;;5.88;3.78;;;;;;;24.20;100.00;102362.53;5074296;28;20078;-74
2023/09/18 06:42:10;;;;;;;7.25;3.92;;;;;;;24.13;100.00;102807.56;5073582;28;20099;-74
2023/09/18 06:44:37;;;;;;;6.43;4.10;;;;;;;24.14;100.00;103272.19;5072872;28;20040;-75
2023/09/18 06:47:03;;;;;;;5.55;4.40;;;;;;;23.77;100.00;104317.63;5073891;28;20081;-73
2023/09/18 06:49:28;;;;;;;5.55;4.63;;;;;;;23.86;100.00;104338.28;5073092;28;20111;-75
2023/09/18 06:51:53;;;;;;;7.53;4.38;;;;;;;24.22;100.00;104335.22;5074035;28;20028;-74
2023/09/18 06:54:19;;;;;;;4.70;4.20;;;;;;;24.24;100.00;104369.00;5055785;28;20190;-72
2023/09/18 06:56:44;;;;;;;7.25;4.53;;;;;;;24.29;100.00;104347.22;5073582;28;20029;-72
2023/09/18 06:59:11;;;;;;;5.88;4.80;;;;;;;24.64;100.00;104575.84;5073943;28;20036;-74
2023/09/18 07:01:37;;;;;;;7.93;4.43;;;;;;;23.59;100.00;104336.91;5072275;28;20067;-73
2023/09/18 07:04:04;;;;;;;6.63;4.53;;;;;;;24.78;100.00;104313.47;5071962;28;20068;-72
2023/09/18 07:06:30;;;;;;;6.32;5.20;;;;;;;24.20;100.00;104895.59;5073419;28;20035;-75
2023/09/18 07:08:56;;;;;;;6.22;5.18;;;;;;;24.22;100.00;104790.63;5056025;28;20112;-73
2023/09/18 07:11:21;;;;;;;5.40;4.88;;;;;;;23.75;100.00;104666.06;5052404;28;20025;-72
2023/09/18 07:13:47;;;;;;;5.00;4.45;;;;;;;24.07;100.00;104627.66;5052521;28;20115;-73
2023/09/18 07:16:13;;;;;;;4.75;4.07;;;;;;;24.37;100.00;104534.50;5053418;28;20071;-76
2023/09/18 07:18:39;;;;;;;7.10;4.20;;;;;;;25.06;100.00;104496.22;5053459;28;20407;-74
2023/09/18 07:21:04;;;;;;;5.72;4.30;;;;;;;25.24;100.00;104316.91;5036080;28;20029;-73
2023/09/18 07:23:30;;;;;;;5.65;4.00;;;;;;;24.12;100.00;103943.38;5062696;28;20021;-74
2023/09/18 07:25:55;;;;;;;4.55;3.65;;;;;;;24.85;100.00;103779.38;5059173;28;20033;-73
2023/09/18 07:28:20;;;;;;;5.00;3.40;;;;;;;24.82;100.00;103377.53;5052105;28;20058;-71
2023/09/18 07:30:47;;;;;;;4.60;3.80;;;;;;;25.18;100.00;102964.66;5053289;28;20108;-73
2023/09/18 07:33:17;;;;;;;5.82;4.13;;;;;;;25.62;100.00;102928.94;5052876;28;20029;-73
2023/09/18 07:35:47;;;;;;;5.38;3.90;;;;;;;25.07;100.00;102654.31;5052880;28;20499;-73
2023/09/18 07:38:12;;;;;;;6.57;3.70;;;;;;;25.40;100.00;102563.34;5051629;28;20029;-72
2023/09/18 07:40:37;;;;;;;4.28;3.67;;;;;;;25.72;100.00;102374.91;5051142;28;20032;-74
2023/09/18 07:43:03;;;;;;;5.25;3.63;;;;;;;26.14;100.00;102200.47;5060099;28;20041;-75
2023/09/18 07:45:28;;;;;;;6.15;3.65;;;;;;;26.53;100.00;102079.84;5073213;28;20380;-75
2023/09/18 07:47:54;;;;;;;4.95;3.83;;;;;;;25.24;100.00;101766.09;5072458;28;20111;-73
2023/09/18 07:50:19;;;;;;;4.45;3.42;;;;;;;25.35;100.00;101706.41;5071254;28;20036;-73
2023/09/18 07:52:44;;;;;;;5.60;3.58;;;;;;;26.34;100.00;101567.88;5072774;28;20047;-72
2023/09/18 07:55:10;;;;;;;3.90;2.90;;;;;;;25.45;100.00;101301.09;5054170;28;20029;-73
2023/09/18 07:57:37;;;;;;;4.45;3.30;;;;;;;25.85;100.00;101212.31;5072688;28;20418;-73
2023/09/18 08:00:12;;;;;;;4.32;3.30;;;;;;;25.53;100.00;101150.28;5072615;28;20024;-73
2023/09/18 08:02:38;;;;;;;3.92;3.22;;;;;;;26.16;100.00;101115.31;5072380;28;20020;-72
2023/09/18 08:05:04;;;;;;;4.43;3.13;;;;;;;27.16;100.00;101145.81;5054941;28;20040;-74
2023/09/18 08:07:30;;;;;;;3.80;3.40;;;;;;;26.20;100.00;101095.88;5072480;28;20031;-73
2023/09/18 08:09:56;;;;;;;4.93;3.67;;;;;;;26.35;100.00;101279.94;5072370;28;20402;-72
2023/09/18 08:12:23;;;;;;;3.72;3.20;;;;;;;26.27;100.00;101301.34;5070799;28;20040;-73
2023/09/18 08:14:50;;;;;;;4.82;3.92;;;;;;;25.95;100.00;101287.13;5071548;28;20090;-72
2023/09/18 08:17:15;;;;;;;6.22;3.85;;;;;;;26.81;100.00;101345.28;5072321;28;20020;-73
2023/09/18 08:19:41;;;;;;;4.28;3.70;;;;;;;26.79;100.00;101375.91;5073291;28;20101;-73
2023/09/18 08:22:06;;;;;;;4.07;3.60;;;;;;;25.85;100.00;101311.38;5071863;28;20028;-72
2023/09/18 08:24:31;;;;;;;7.35;4.60;;;;;;;25.88;100.00;101295.50;5072057;28;20028;-72
2023/09/18 08:26:57;;;;;;;5.13;4.10;;;;;;;25.62;100.00;101316.41;5070487;28;20087;-74
2023/09/18 08:29:22;;;;;;;8.75;4.22;;;;;;;25.88;100.00;101251.19;5071303;28;20552;-72
2023/09/18 08:31:49;;;;;;;4.60;4.00;;;;;;;25.57;100.00;101235.09;5070184;28;20470;-74
2023/09/18 08:34:14;;;;;;;5.82;4.18;;;;;;;26.56;100.00;101257.50;5069998;28;20040;-71
2023/09/18 08:36:40;;;;;;;5.03;4.10;;;;;;;27.13;100.00;101207.91;5071964;28;20081;-72
2023/09/18 08:39:05;;;;;;;4.70;4.10;;;;;;;27.16;100.00;101258.13;5071419;28;20436;-71
2023/09/18 08:41:32;;;;;;;5.32;4.38;;;;;;;26.45;100.00;101270.50;5071526;28;20039;-72
2023/09/18 08:44:03;;;;;;;8.25;4.55;;;;;;;26.86;100.00;101272.69;5053363;28;20838;-73
2023/09/18 08:46:30;;;;;;;4.65;4.20;;;;;;;27.45;100.00;101277.63;5053923;28;20040;-74
2023/09/18 08:48:58;;;;;;;7.22;4.97;;;;;;;26.77;100.00;101283.81;5071949;28;20047;-72
2023/09/18 08:51:24;;;;;;;5.75;4.70;;;;;;;27.51;100.00;101275.53;5071252;28;20518;-73
2023/09/18 08:53:51;;;;;;;5.63;4.63;;;;;;;26.58;100.00;101295.56;5071472;28;20028;-73
2023/09/18 08:56:17;;;;;;;7.22;4.97;;;;;;;26.59;100.00;101292.03;5071359;28;20188;-73
2023/09/18 08:58:43;;;;;;;6.13;5.03;;;;;;;26.85;100.00;101281.47;5053032;28;20148;-72
2023/09/18 09:01:10;;;;;;;10.95;6.30;;;;;;;27.23;100.00;101280.25;5071480;28;20455;-73
2023/09/18 09:03:38;;;;;;;6.22;5.63;;;;;;;26.93;100.00;101232.94;5053262;28;20063;-72
2023/09/18 09:06:04;;;;;;;6.68;5.50;;;;;;;26.93;100.00;101243.38;5071200;28;20089;-72
2023/09/18 09:08:30;;;;;;;7.32;6.43;;;;;;;26.00;100.00;101234.69;5070964;28;20032;-75
2023/09/18 09:10:57;;;;;;;6.22;5.30;;;;;;;26.62;100.00;101265.69;5071041;28;20036;-73
2023/09/18 09:13:26;;;;;;;7.18;5.97;;;;;;;26.87;100.00;101259.50;5071132;28;20115;-74
2023/09/18 09:15:54;;;;;;;9.05;5.80;;;;;;;26.52;100.00;101232.56;5069792;28;20039;-73
2023/09/18 09:18:20;;;;;;;7.85;5.60;;;;;;;27.52;100.00;101189.13;5071149;28;20032;-73
2023/09/18 09:20:58;;;;;;;6.10;5.50;;;;;;;26.46;100.00;101212.97;5071249;28;21428;-75
2023/09/18 09:23:25;;;;;;;7.43;5.07;;;;;;;26.77;100.00;101237.66;5052404;28;20418;-73
2023/09/18 09:25:51;;;;;;;7.47;5.15;;;;;;;26.67;100.00;101210.53;5070138;28;20104;-72
2023/09/18 09:28:29;;;;;;;5.80;5.30;;;;;;;26.22;100.00;101188.72;5070761;28;20115;-74
2023/09/18 09:31:03;;;;;;;8.43;5.32;;;;;;;27.37;100.00;101221.72;5070612;28;20028;-72
2023/09/18 09:33:29;;;;;;;8.10;5.35;;;;;;;27.28;100.00;101233.69;5052636;28;20469;-72
2023/09/18 09:35:56;;;;;;;6.40;5.45;;;;;;;27.63;100.00;101217.06;5069595;28;20032;-72
2023/09/18 09:38:28;;;;;;;6.47;5.18;;;;;;;28.05;100.00;101209.25;5052606;28;20024;-72
2023/09/18 09:40:54;;;;;;;5.63;5.03;;;;;;;28.00;100.00;101194.88;5071143;28;20039;-72
2023/09/18 09:43:21;;;;;;;6.68;5.15;;;;;;;27.52;100.00;101165.63;5070776;28;20037;-72
2023/09/18 09:45:46;;;;;;;6.43;4.85;;;;;;;26.04;100.00;101186.56;5070795;28;20456;-74
2023/09/18 09:48:12;;;;;;;6.72;4.90;;;;;;;25.96;100.00;101207.16;5070361;28;20028;-74
2023/09/18 09:50:46;;;;;;;6.88;5.55;;;;;;;25.78;100.00;101168.44;5066852;28;20106;-73
2023/09/18 09:53:13;;;;;;;6.43;5.30;;;;;;;25.55;100.00;101212.72;5051568;28;20032;-75
2023/09/18 09:55:40;;;;;;;6.20;5.30;;;;;;;27.10;100.00;101168.94;5033354;28;20454;-76
2023/09/18 09:58:06;;;;;;;6.78;4.60;;;;;;;27.32;100.00;101175.00;5051537;28;20029;-76
2023/09/18 10:00:43;;;;;;;9.32;4.93;;;;;;;26.66;100.00;101187.16;5050975;28;20033;-74
2023/09/18 10:03:10;;;;;;;10.55;4.95;;;;;;;27.81;100.00;101129.31;5032385;28;20032;-74
2023/09/18 10:05:38;;;;;;;6.40;5.07;;;;;;;27.82;100.00;101134.41;5032371;28;20025;-75
2023/09/18 10:08:07;;;;;;;7.00;4.60;;;;;;;27.58;100.00;101099.78;5050605;28;20166;-75
2023/09/18 10:10:39;;;;;;;5.57;4.28;;;;;;;27.58;100.00;101166.91;5050739;28;20184;-74
2023/09/18 10:13:15;;;;;;;6.57;4.57;;;;;;;27.86;100.00;101082.69;5050680;28;20025;-76
2023/09/18 10:15:43;;;;;;;6.10;4.97;;;;;;;28.64;100.00;101112.72;5032560;28;20147;-74
2023/09/18 10:18:36;;;;;;;6.00;4.75;;;;;;;28.51;100.00;101153.94;5050317;28;20025;-75
2023/09/18 10:21:31;;;;;;;8.07;4.72;;;;;;;28.42;100.00;101164.34;5050430;28;20021;-73
2023/09/18 10:24:05;;;;;;;5.50;4.20;;;;;;;28.31;100.00;101153.97;5048990;28;20028;-75
2023/09/18 10:26:38;;;;;;;6.18;4.40;;;;;;;28.06;100.00;101168.22;5050973;28;20037;-75
2023/09/18 10:29:05;;;;;;;6.45;4.15;;;;;;;27.97;100.00;101133.16;5052276;28;20033;-74
2023/09/18 10:31:34;;;;;;;7.13;4.20;;;;;;;29.33;100.00;101118.91;5052278;28;20025;-75
2023/09/18 10:34:02;;;;;;;6.55;4.10;;;;;;;28.92;100.00;101119.03;5056290;28;20056;-74
2023/09/18 10:36:29;;;;;;;6.28;3.97;;;;;;;28.44;100.00;101082.13;5051196;28;20033;-74
2023/09/18 10:38:56;;;;;;;6.32;4.00;;;;;;;28.91;100.00;101131.31;5056716;28;20043;-75
2023/09/18 10:41:22;;;;;;;5.78;4.00;;;;;;;28.75;100.00;101117.84;5071837;28;20051;-74
2023/09/18 10:43:49;;;;;;;8.55;3.85;;;;;;;28.31;100.00;101136.44;5057716;28;20040;-74
2023/09/18 10:46:15;;;;;;;3.92;3.40;;;;;;;27.80;100.00;101051.78;5054466;28;20052;-75
2023/09/18 10:48:46;;;;;;;4.93;3.65;;;;;;;28.74;100.00;101081.34;5054218;28;20091;-74
2023/09/18 10:51:13;;;;;;;7.43;3.50;;;;;;;28.97;100.00;101120.28;5035918;28;20098;-74
2023/09/18 10:53:39;;;;;;;6.40;3.70;;;;;;;28.42;100.00;101131.16;5052703;28;20128;-75
2023/09/18 10:56:05;;;;;;;4.03;3.28;;;;;;;28.48;100.00;101083.53;5052292;28;20434;-71
2023/09/18 10:58:30;;;;;;;5.25;3.50;;;;;;;29.27;100.00;101123.84;5053657;28;20043;-74
2023/09/18 11:00:59;;;;;;;5.25;3.58;;;;;;;28.16;100.00;101164.72;5054139;28;20120;-75
2023/09/18 11:03:24;;;;;;;5.10;3.70;;;;;;;27.99;100.00;101112.16;5053880;28;20099;-77
2023/09/18 11:06:05;;;;;;;6.30;3.45;;;;;;;28.36;100.00;101142.16;5053909;28;20024;-75
2023/09/18 11:08:43;;;;;;;5.05;3.65;;;;;;;27.75;100.00;101164.59;5053749;28;20033;-74
2023/09/18 11:11:11;;;;;;;5.22;3.35;;;;;;;28.72;100.00;101115.50;5035921;28;20052;-74
2023/09/18 11:13:42;;;;;;;6.65;3.63;;;;;;;28.62;100.00;101130.34;5036200;28;20024;-72